sensor_id;sensor_type;location;lat;lon;timestamp;temperature;humidity
24744;DHT22;12844;52.110;5.548;2023-04-09T00:00:23;17.60;51.60
24744;DHT22;12844;52.110;5.548;2023-04-09T00:02:48;17.60;51.60
24744;DHT22;12844;52.110;5.548;2023-04-09T00:05:14;17.60;51.60
24744;DHT22;12844;52.110;5.548;2023-04-09T00:07:39;17.60;51.60
24744;DHT22;12844;52.110;5.548;2023-04-09T00:10:06;17.60;51.60
24744;DHT22;12844;52.110;5.548;2023-04-09T00:12:31;17.60;51.60
24744;DHT22;12844;52.110;5.548;2023-04-09T00:14:57;17.60;51.60
24744;DHT22;12844;52.110;5.548;2023-04-09T00:17:22;17.60;51.60
24744;DHT22;12844;52.110;5.548;2023-04-09T00:19:48;17.60;51.70
24744;DHT22;12844;52.110;5.548;2023-04-09T00:22:13;17.60;51.60
24744;DHT22;12844;52.110;5.548;2023-04-09T00:24:40;17.60;51.60
24744;DHT22;12844;52.110;5.548;2023-04-09T00:27:05;17.60;51.60
24744;DHT22;12844;52.110;5.548;2023-04-09T00:29:31;17.60;51.70
24744;DHT22;12844;52.110;5.548;2023-04-09T00:31:56;17.60;51.60
24744;DHT22;12844;52.110;5.548;2023-04-09T00:34:22;17.60;51.60
24744;DHT22;12844;52.110;5.548;2023-04-09T00:36:47;17.60;51.60
24744;DHT22;12844;52.110;5.548;2023-04-09T00:39:13;17.60;51.60
24744;DHT22;12844;52.110;5.548;2023-04-09T00:41:38;17.60;51.60
24744;DHT22;12844;52.110;5.548;2023-04-09T00:44:04;17.60;51.60
24744;DHT22;12844;52.110;5.548;2023-04-09T00:46:30;17.60;51.60
24744;DHT22;12844;52.110;5.548;2023-04-09T00:48:56;17.60;51.60
24744;DHT22;12844;52.110;5.548;2023-04-09T00:51:22;17.50;51.60
24744;DHT22;12844;52.110;5.548;2023-04-09T00:53:48;17.60;51.70
24744;DHT22;12844;52.110;5.548;2023-04-09T00:56:14;17.50;51.60
24744;DHT22;12844;52.110;5.548;2023-04-09T00:58:40;17.50;51.60
24744;DHT22;12844;52.110;5.548;2023-04-09T01:01:06;17.50;51.60
24744;DHT22;12844;52.110;5.548;2023-04-09T01:03:31;17.50;51.60
24744;DHT22;12844;52.110;5.548;2023-04-09T01:06:16;17.50;51.60
24744;DHT22;12844;52.110;5.548;2023-04-09T01:08:55;17.60;51.60
24744;DHT22;12844;52.110;5.548;2023-04-09T01:14:29;17.60;51.60
24744;DHT22;12844;52.110;5.548;2023-04-09T01:17:04;17.50;51.60
24744;DHT22;12844;52.110;5.548;2023-04-09T01:19:38;17.50;51.60
24744;DHT22;12844;52.110;5.548;2023-04-09T01:22:13;17.50;51.60
24744;DHT22;12844;52.110;5.548;2023-04-09T01:25:11;17.50;51.60
24744;DHT22;12844;52.110;5.548;2023-04-09T01:28:13;17.60;51.60
24744;DHT22;12844;52.110;5.548;2023-04-09T01:30:43;17.50;51.60
24744;DHT22;12844;52.110;5.548;2023-04-09T01:33:13;17.50;51.70
24744;DHT22;12844;52.110;5.548;2023-04-09T01:35:42;17.50;51.70
24744;DHT22;12844;52.110;5.548;2023-04-09T01:38:10;17.50;51.70
24744;DHT22;12844;52.110;5.548;2023-04-09T01:40:36;17.50;51.60
24744;DHT22;12844;52.110;5.548;2023-04-09T01:43:02;17.50;51.60
24744;DHT22;12844;52.110;5.548;2023-04-09T01:45:28;17.50;51.60
24744;DHT22;12844;52.110;5.548;2023-04-09T01:47:54;17.50;51.70
24744;DHT22;12844;52.110;5.548;2023-04-09T01:50:21;17.50;51.60
24744;DHT22;12844;52.110;5.548;2023-04-09T01:52:47;17.50;51.60
24744;DHT22;12844;52.110;5.548;2023-04-09T01:55:13;17.50;51.60
24744;DHT22;12844;52.110;5.548;2023-04-09T01:57:38;17.50;51.60
24744;DHT22;12844;52.110;5.548;2023-04-09T02:00:05;17.50;51.60
24744;DHT22;12844;52.110;5.548;2023-04-09T02:02:38;17.50;51.60
24744;DHT22;12844;52.110;5.548;2023-04-09T02:05:08;17.50;51.60
24744;DHT22;12844;52.110;5.548;2023-04-09T02:10:01;17.50;51.60
24744;DHT22;12844;52.110;5.548;2023-04-09T02:12:30;17.50;51.60
24744;DHT22;12844;52.110;5.548;2023-04-09T02:14:58;17.50;51.60
24744;DHT22;12844;52.110;5.548;2023-04-09T02:17:25;17.50;51.60
24744;DHT22;12844;52.110;5.548;2023-04-09T02:19:51;17.50;51.60
24744;DHT22;12844;52.110;5.548;2023-04-09T02:22:17;17.50;51.60
24744;DHT22;12844;52.110;5.548;2023-04-09T02:24:43;17.50;51.60
24744;DHT22;12844;52.110;5.548;2023-04-09T02:27:10;17.50;51.60
24744;DHT22;12844;52.110;5.548;2023-04-09T02:29:35;17.50;51.60
24744;DHT22;12844;52.110;5.548;2023-04-09T02:32:01;17.50;51.60
24744;DHT22;12844;52.110;5.548;2023-04-09T02:34:27;17.50;51.60
24744;DHT22;12844;52.110;5.548;2023-04-09T02:36:52;17.50;51.60
24744;DHT22;12844;52.110;5.548;2023-04-09T02:39:18;17.50;51.60
24744;DHT22;12844;52.110;5.548;2023-04-09T02:41:43;17.40;51.60
24744;DHT22;12844;52.110;5.548;2023-04-09T02:44:09;17.40;51.60
24744;DHT22;12844;52.110;5.548;2023-04-09T02:46:34;17.40;51.60
24744;DHT22;12844;52.110;5.548;2023-04-09T02:49:00;17.50;51.60
24744;DHT22;12844;52.110;5.548;2023-04-09T02:51:26;17.50;51.60
24744;DHT22;12844;52.110;5.548;2023-04-09T02:53:51;17.40;51.60
24744;DHT22;12844;52.110;5.548;2023-04-09T02:56:17;17.40;51.60
24744;DHT22;12844;52.110;5.548;2023-04-09T02:58:42;17.50;51.60
24744;DHT22;12844;52.110;5.548;2023-04-09T03:01:08;17.50;51.60
24744;DHT22;12844;52.110;5.548;2023-04-09T03:03:33;17.40;51.60
24744;DHT22;12844;52.110;5.548;2023-04-09T03:05:59;17.50;51.60
24744;DHT22;12844;52.110;5.548;2023-04-09T03:08:25;17.40;51.60
24744;DHT22;12844;52.110;5.548;2023-04-09T03:10:50;17.50;51.60
24744;DHT22;12844;52.110;5.548;2023-04-09T03:13:16;17.40;51.60
24744;DHT22;12844;52.110;5.548;2023-04-09T03:15:41;17.40;51.60
24744;DHT22;12844;52.110;5.548;2023-04-09T03:18:07;17.50;51.60
24744;DHT22;12844;52.110;5.548;2023-04-09T03:20:32;17.40;51.60
24744;DHT22;12844;52.110;5.548;2023-04-09T03:22:58;17.40;51.60
24744;DHT22;12844;52.110;5.548;2023-04-09T03:25:23;17.40;51.60
24744;DHT22;12844;52.110;5.548;2023-04-09T03:27:49;17.40;51.60
24744;DHT22;12844;52.110;5.548;2023-04-09T03:30:14;17.40;51.60
24744;DHT22;12844;52.110;5.548;2023-04-09T03:32:40;17.40;51.60
24744;DHT22;12844;52.110;5.548;2023-04-09T03:35:05;17.40;51.60
24744;DHT22;12844;52.110;5.548;2023-04-09T03:37:31;17.40;51.60
24744;DHT22;12844;52.110;5.548;2023-04-09T03:39:57;17.40;51.60
24744;DHT22;12844;52.110;5.548;2023-04-09T03:42:22;17.40;51.60
24744;DHT22;12844;52.110;5.548;2023-04-09T03:44:48;17.40;51.60
24744;DHT22;12844;52.110;5.548;2023-04-09T03:47:13;17.40;51.60
24744;DHT22;12844;52.110;5.548;2023-04-09T03:49:39;17.40;51.60
24744;DHT22;12844;52.110;5.548;2023-04-09T03:52:05;17.40;51.60
24744;DHT22;12844;52.110;5.548;2023-04-09T03:54:31;17.40;51.60
24744;DHT22;12844;52.110;5.548;2023-04-09T03:56:57;17.40;51.60
24744;DHT22;12844;52.110;5.548;2023-04-09T03:59:23;17.40;51.60
24744;DHT22;12844;52.110;5.548;2023-04-09T04:01:48;17.40;51.60
24744;DHT22;12844;52.110;5.548;2023-04-09T04:04:14;17.40;51.60
24744;DHT22;12844;52.110;5.548;2023-04-09T04:06:39;17.40;51.60
24744;DHT22;12844;52.110;5.548;2023-04-09T04:09:05;17.40;51.50
24744;DHT22;12844;52.110;5.548;2023-04-09T04:11:30;17.40;51.60
24744;DHT22;12844;52.110;5.548;2023-04-09T04:13:56;17.40;51.60
24744;DHT22;12844;52.110;5.548;2023-04-09T04:16:21;17.40;51.60
24744;DHT22;12844;52.110;5.548;2023-04-09T04:18:47;17.40;51.60
24744;DHT22;12844;52.110;5.548;2023-04-09T04:21:13;17.40;51.60
24744;DHT22;12844;52.110;5.548;2023-04-09T04:23:39;17.40;51.50
24744;DHT22;12844;52.110;5.548;2023-04-09T04:26:11;17.40;51.50
24744;DHT22;12844;52.110;5.548;2023-04-09T04:28:37;17.40;51.50
24744;DHT22;12844;52.110;5.548;2023-04-09T04:31:10;17.40;51.60
24744;DHT22;12844;52.110;5.548;2023-04-09T04:33:37;17.40;51.60
24744;DHT22;12844;52.110;5.548;2023-04-09T04:36:10;17.30;51.50
24744;DHT22;12844;52.110;5.548;2023-04-09T04:38:36;17.40;51.60
24744;DHT22;12844;52.110;5.548;2023-04-09T04:41:02;17.40;51.60
24744;DHT22;12844;52.110;5.548;2023-04-09T04:43:28;17.30;51.60
24744;DHT22;12844;52.110;5.548;2023-04-09T04:45:54;17.40;51.60
24744;DHT22;12844;52.110;5.548;2023-04-09T04:48:20;17.40;51.60
24744;DHT22;12844;52.110;5.548;2023-04-09T04:50:46;17.30;51.60
24744;DHT22;12844;52.110;5.548;2023-04-09T04:53:11;17.30;51.50
24744;DHT22;12844;52.110;5.548;2023-04-09T04:55:37;17.30;51.50
24744;DHT22;12844;52.110;5.548;2023-04-09T04:58:04;17.40;51.60
24744;DHT22;12844;52.110;5.548;2023-04-09T05:00:30;17.40;51.50
24744;DHT22;12844;52.110;5.548;2023-04-09T05:02:55;17.30;51.50
24744;DHT22;12844;52.110;5.548;2023-04-09T05:05:21;17.30;51.50
24744;DHT22;12844;52.110;5.548;2023-04-09T05:07:46;17.30;51.60
24744;DHT22;12844;52.110;5.548;2023-04-09T05:10:12;17.30;51.50
24744;DHT22;12844;52.110;5.548;2023-04-09T05:12:37;17.30;51.60
24744;DHT22;12844;52.110;5.548;2023-04-09T05:15:03;17.30;51.50
24744;DHT22;12844;52.110;5.548;2023-04-09T05:17:29;17.30;51.50
24744;DHT22;12844;52.110;5.548;2023-04-09T05:19:55;17.30;51.50
24744;DHT22;12844;52.110;5.548;2023-04-09T05:22:22;17.40;51.50
24744;DHT22;12844;52.110;5.548;2023-04-09T05:24:47;17.30;51.50
24744;DHT22;12844;52.110;5.548;2023-04-09T05:27:13;17.30;51.50
24744;DHT22;12844;52.110;5.548;2023-04-09T05:29:39;17.40;51.50
24744;DHT22;12844;52.110;5.548;2023-04-09T05:32:04;17.30;51.50
24744;DHT22;12844;52.110;5.548;2023-04-09T05:34:31;17.30;51.50
24744;DHT22;12844;52.110;5.548;2023-04-09T05:36:56;17.30;51.50
24744;DHT22;12844;52.110;5.548;2023-04-09T05:39:22;17.30;51.50
24744;DHT22;12844;52.110;5.548;2023-04-09T05:41:47;17.30;51.50
24744;DHT22;12844;52.110;5.548;2023-04-09T05:44:13;17.30;51.50
24744;DHT22;12844;52.110;5.548;2023-04-09T05:46:38;17.30;51.50
24744;DHT22;12844;52.110;5.548;2023-04-09T05:49:04;17.30;51.50
24744;DHT22;12844;52.110;5.548;2023-04-09T05:51:30;17.30;51.60
24744;DHT22;12844;52.110;5.548;2023-04-09T05:53:56;17.40;51.60
24744;DHT22;12844;52.110;5.548;2023-04-09T05:56:21;17.30;51.60
24744;DHT22;12844;52.110;5.548;2023-04-09T05:58:47;17.30;51.60
24744;DHT22;12844;52.110;5.548;2023-04-09T06:01:13;17.30;51.60
24744;DHT22;12844;52.110;5.548;2023-04-09T06:03:39;17.30;51.60
24744;DHT22;12844;52.110;5.548;2023-04-09T06:06:05;17.30;51.60
24744;DHT22;12844;52.110;5.548;2023-04-09T06:08:31;17.30;51.60
24744;DHT22;12844;52.110;5.548;2023-04-09T06:10:57;17.30;51.60
24744;DHT22;12844;52.110;5.548;2023-04-09T06:13:22;17.30;51.60
24744;DHT22;12844;52.110;5.548;2023-04-09T06:15:48;17.30;51.60
24744;DHT22;12844;52.110;5.548;2023-04-09T06:18:14;17.40;51.60
24744;DHT22;12844;52.110;5.548;2023-04-09T06:20:39;17.40;51.60
24744;DHT22;12844;52.110;5.548;2023-04-09T06:23:05;17.40;51.60
24744;DHT22;12844;52.110;5.548;2023-04-09T06:25:31;17.40;51.60
24744;DHT22;12844;52.110;5.548;2023-04-09T06:27:57;17.40;51.60
24744;DHT22;12844;52.110;5.548;2023-04-09T06:30:22;17.40;51.60
24744;DHT22;12844;52.110;5.548;2023-04-09T06:32:49;17.40;51.60
24744;DHT22;12844;52.110;5.548;2023-04-09T06:35:14;17.40;51.60
24744;DHT22;12844;52.110;5.548;2023-04-09T06:37:40;17.40;51.60
24744;DHT22;12844;52.110;5.548;2023-04-09T06:40:06;17.40;51.50
24744;DHT22;12844;52.110;5.548;2023-04-09T06:42:32;17.50;51.60
24744;DHT22;12844;52.110;5.548;2023-04-09T06:44:58;17.50;51.50
24744;DHT22;12844;52.110;5.548;2023-04-09T06:47:23;17.50;51.50
24744;DHT22;12844;52.110;5.548;2023-04-09T06:49:49;17.50;51.50
24744;DHT22;12844;52.110;5.548;2023-04-09T06:52:15;17.50;51.60
24744;DHT22;12844;52.110;5.548;2023-04-09T06:54:40;17.50;51.50
24744;DHT22;12844;52.110;5.548;2023-04-09T06:57:07;17.50;51.60
24744;DHT22;12844;52.110;5.548;2023-04-09T06:59:32;17.50;51.40
24744;DHT22;12844;52.110;5.548;2023-04-09T07:01:59;17.50;51.50
24744;DHT22;12844;52.110;5.548;2023-04-09T07:04:24;17.50;51.50
24744;DHT22;12844;52.110;5.548;2023-04-09T07:06:50;17.50;51.40
24744;DHT22;12844;52.110;5.548;2023-04-09T07:09:19;17.60;51.40
24744;DHT22;12844;52.110;5.548;2023-04-09T07:11:45;17.60;51.40
24744;DHT22;12844;52.110;5.548;2023-04-09T07:14:10;17.60;51.40
24744;DHT22;12844;52.110;5.548;2023-04-09T07:16:36;17.60;51.30
24744;DHT22;12844;52.110;5.548;2023-04-09T07:19:01;17.60;51.20
24744;DHT22;12844;52.110;5.548;2023-04-09T07:21:27;17.70;51.20
24744;DHT22;12844;52.110;5.548;2023-04-09T07:23:53;17.70;51.30
24744;DHT22;12844;52.110;5.548;2023-04-09T07:26:19;17.70;51.20
24744;DHT22;12844;52.110;5.548;2023-04-09T07:28:44;17.70;51.10
24744;DHT22;12844;52.110;5.548;2023-04-09T07:31:10;17.70;51.10
24744;DHT22;12844;52.110;5.548;2023-04-09T07:33:36;17.80;51.10
24744;DHT22;12844;52.110;5.548;2023-04-09T07:36:02;17.80;51.00
24744;DHT22;12844;52.110;5.548;2023-04-09T07:38:30;17.80;50.90
24744;DHT22;12844;52.110;5.548;2023-04-09T07:40:56;17.90;50.90
24744;DHT22;12844;52.110;5.548;2023-04-09T07:43:22;17.90;50.90
24744;DHT22;12844;52.110;5.548;2023-04-09T07:45:48;17.90;50.80
24744;DHT22;12844;52.110;5.548;2023-04-09T07:48:16;18.00;50.90
24744;DHT22;12844;52.110;5.548;2023-04-09T07:50:41;18.00;50.90
24744;DHT22;12844;52.110;5.548;2023-04-09T07:53:09;17.90;50.90
24744;DHT22;12844;52.110;5.548;2023-04-09T07:55:35;18.00;50.90
24744;DHT22;12844;52.110;5.548;2023-04-09T07:58:00;18.00;50.90
24744;DHT22;12844;52.110;5.548;2023-04-09T08:00:26;18.00;50.90
24744;DHT22;12844;52.110;5.548;2023-04-09T08:02:51;18.00;50.80
24744;DHT22;12844;52.110;5.548;2023-04-09T08:05:17;18.00;50.80
24744;DHT22;12844;52.110;5.548;2023-04-09T08:07:42;18.00;50.80
24744;DHT22;12844;52.110;5.548;2023-04-09T08:10:08;18.00;50.70
24744;DHT22;12844;52.110;5.548;2023-04-09T08:12:39;18.00;50.80
24744;DHT22;12844;52.110;5.548;2023-04-09T08:15:05;18.10;50.70
24744;DHT22;12844;52.110;5.548;2023-04-09T08:17:30;18.10;50.70
24744;DHT22;12844;52.110;5.548;2023-04-09T08:19:56;18.10;50.60
24744;DHT22;12844;52.110;5.548;2023-04-09T08:22:21;18.10;50.60
24744;DHT22;12844;52.110;5.548;2023-04-09T08:24:51;18.10;50.60
24744;DHT22;12844;52.110;5.548;2023-04-09T08:27:17;18.20;50.60
24744;DHT22;12844;52.110;5.548;2023-04-09T08:29:43;18.20;50.60
24744;DHT22;12844;52.110;5.548;2023-04-09T08:32:09;18.20;50.50
24744;DHT22;12844;52.110;5.548;2023-04-09T08:34:34;18.20;50.50
24744;DHT22;12844;52.110;5.548;2023-04-09T08:37:00;18.30;50.50
24744;DHT22;12844;52.110;5.548;2023-04-09T08:39:26;18.30;50.50
24744;DHT22;12844;52.110;5.548;2023-04-09T08:41:53;18.30;50.50
24744;DHT22;12844;52.110;5.548;2023-04-09T08:44:25;18.30;50.50
24744;DHT22;12844;52.110;5.548;2023-04-09T08:46:50;18.30;50.50
24744;DHT22;12844;52.110;5.548;2023-04-09T08:49:16;18.30;50.50
24744;DHT22;12844;52.110;5.548;2023-04-09T08:51:45;18.30;50.40
24744;DHT22;12844;52.110;5.548;2023-04-09T08:54:14;18.40;50.40
24744;DHT22;12844;52.110;5.548;2023-04-09T08:56:40;18.40;50.40
24744;DHT22;12844;52.110;5.548;2023-04-09T08:59:06;18.50;50.30
24744;DHT22;12844;52.110;5.548;2023-04-09T09:01:32;18.50;50.30
24744;DHT22;12844;52.110;5.548;2023-04-09T09:04:02;18.50;50.30
24744;DHT22;12844;52.110;5.548;2023-04-09T09:06:33;18.50;50.20
24744;DHT22;12844;52.110;5.548;2023-04-09T09:11:32;18.60;50.20
24744;DHT22;12844;52.110;5.548;2023-04-09T09:14:03;18.50;50.20
24744;DHT22;12844;52.110;5.548;2023-04-09T09:16:29;18.50;50.20
24744;DHT22;12844;52.110;5.548;2023-04-09T09:18:57;18.60;50.30
24744;DHT22;12844;52.110;5.548;2023-04-09T09:21:23;18.60;50.20
24744;DHT22;12844;52.110;5.548;2023-04-09T09:23:50;18.60;50.20
24744;DHT22;12844;52.110;5.548;2023-04-09T09:26:23;18.70;50.10
24744;DHT22;12844;52.110;5.548;2023-04-09T09:28:50;18.70;50.00
24744;DHT22;12844;52.110;5.548;2023-04-09T09:31:18;18.70;50.00
24744;DHT22;12844;52.110;5.548;2023-04-09T09:33:44;18.80;50.00
24744;DHT22;12844;52.110;5.548;2023-04-09T09:36:09;18.80;50.00
24744;DHT22;12844;52.110;5.548;2023-04-09T09:38:50;18.90;49.90
24744;DHT22;12844;52.110;5.548;2023-04-09T09:41:17;18.90;49.80
24744;DHT22;12844;52.110;5.548;2023-04-09T09:43:44;18.90;49.80
24744;DHT22;12844;52.110;5.548;2023-04-09T09:46:10;19.00;49.80
24744;DHT22;12844;52.110;5.548;2023-04-09T09:48:36;19.00;50.40
24744;DHT22;12844;52.110;5.548;2023-04-09T09:51:09;19.10;49.60
24744;DHT22;12844;52.110;5.548;2023-04-09T09:53:36;19.30;49.30
24744;DHT22;12844;52.110;5.548;2023-04-09T09:56:06;19.50;48.90
24744;DHT22;12844;52.110;5.548;2023-04-09T09:58:47;19.80;48.50
24744;DHT22;12844;52.110;5.548;2023-04-09T10:01:16;20.00;48.00
24744;DHT22;12844;52.110;5.548;2023-04-09T10:03:45;20.30;47.70
24744;DHT22;12844;52.110;5.548;2023-04-09T10:06:12;20.40;47.20
24744;DHT22;12844;52.110;5.548;2023-04-09T10:08:41;20.60;47.00
24744;DHT22;12844;52.110;5.548;2023-04-09T10:11:07;20.80;46.70
24744;DHT22;12844;52.110;5.548;2023-04-09T10:13:36;20.90;46.30
24744;DHT22;12844;52.110;5.548;2023-04-09T10:16:03;20.90;46.20
24744;DHT22;12844;52.110;5.548;2023-04-09T10:18:29;21.00;46.10
24744;DHT22;12844;52.110;5.548;2023-04-09T10:23:59;21.30;45.60
24744;DHT22;12844;52.110;5.548;2023-04-09T10:26:32;21.50;45.30
24744;DHT22;12844;52.110;5.548;2023-04-09T10:29:05;21.70;45.10
24744;DHT22;12844;52.110;5.548;2023-04-09T10:31:53;21.80;44.80
24744;DHT22;12844;52.110;5.548;2023-04-09T10:34:25;21.90;44.70
24744;DHT22;12844;52.110;5.548;2023-04-09T10:36:55;21.80;44.70
24744;DHT22;12844;52.110;5.548;2023-04-09T10:39:31;21.60;44.80
24744;DHT22;12844;52.110;5.548;2023-04-09T10:42:02;21.50;45.10
24744;DHT22;12844;52.110;5.548;2023-04-09T10:44:31;21.20;45.50
24744;DHT22;12844;52.110;5.548;2023-04-09T10:46:57;21.00;45.80
24744;DHT22;12844;52.110;5.548;2023-04-09T10:49:24;20.90;46.10
24744;DHT22;12844;52.110;5.548;2023-04-09T10:52:11;20.80;46.50
24744;DHT22;12844;52.110;5.548;2023-04-09T10:54:42;20.50;46.80
24744;DHT22;12844;52.110;5.548;2023-04-09T10:57:10;20.40;47.20
24744;DHT22;12844;52.110;5.548;2023-04-09T10:59:37;20.20;47.50
24744;DHT22;12844;52.110;5.548;2023-04-09T11:02:07;20.10;47.80
24744;DHT22;12844;52.110;5.548;2023-04-09T11:04:40;20.00;48.00
24744;DHT22;12844;52.110;5.548;2023-04-09T11:07:08;19.90;48.30
24744;DHT22;12844;52.110;5.548;2023-04-09T11:09:35;19.80;48.50
24744;DHT22;12844;52.110;5.548;2023-04-09T11:12:01;19.70;48.60
24744;DHT22;12844;52.110;5.548;2023-04-09T11:14:27;19.70;48.80
24744;DHT22;12844;52.110;5.548;2023-04-09T11:16:53;19.60;48.90
24744;DHT22;12844;52.110;5.548;2023-04-09T11:19:22;19.60;49.00
24744;DHT22;12844;52.110;5.548;2023-04-09T11:21:47;19.50;49.20
24744;DHT22;12844;52.110;5.548;2023-04-09T11:24:14;19.50;49.40
24744;DHT22;12844;52.110;5.548;2023-04-09T11:26:40;19.40;49.50
24744;DHT22;12844;52.110;5.548;2023-04-09T11:29:06;19.40;49.50
24744;DHT22;12844;52.110;5.548;2023-04-09T11:31:33;19.30;49.60
24744;DHT22;12844;52.110;5.548;2023-04-09T11:33:59;19.30;49.70
24744;DHT22;12844;52.110;5.548;2023-04-09T11:36:24;19.30;49.70
24744;DHT22;12844;52.110;5.548;2023-04-09T11:38:52;19.30;49.80
24744;DHT22;12844;52.110;5.548;2023-04-09T11:41:32;19.30;49.80
24744;DHT22;12844;52.110;5.548;2023-04-09T11:43:58;19.30;49.90
24744;DHT22;12844;52.110;5.548;2023-04-09T11:46:23;19.20;50.00
24744;DHT22;12844;52.110;5.548;2023-04-09T11:48:51;19.20;50.10
24744;DHT22;12844;52.110;5.548;2023-04-09T11:51:17;19.20;50.20
24744;DHT22;12844;52.110;5.548;2023-04-09T11:53:43;19.20;50.20
24744;DHT22;12844;52.110;5.548;2023-04-09T11:56:09;19.10;50.40
24744;DHT22;12844;52.110;5.548;2023-04-09T11:58:34;19.10;50.40
24744;DHT22;12844;52.110;5.548;2023-04-09T12:01:00;19.10;50.40
24744;DHT22;12844;52.110;5.548;2023-04-09T12:03:30;19.10;50.40
24744;DHT22;12844;52.110;5.548;2023-04-09T12:05:59;19.00;50.40
24744;DHT22;12844;52.110;5.548;2023-04-09T12:08:26;19.00;50.50
24744;DHT22;12844;52.110;5.548;2023-04-09T12:10:52;19.00;50.50
24744;DHT22;12844;52.110;5.548;2023-04-09T12:13:18;18.90;50.60
24744;DHT22;12844;52.110;5.548;2023-04-09T12:15:44;18.90;50.60
24744;DHT22;12844;52.110;5.548;2023-04-09T12:18:13;18.90;50.70
24744;DHT22;12844;52.110;5.548;2023-04-09T12:20:43;18.80;50.70
24744;DHT22;12844;52.110;5.548;2023-04-09T12:23:10;18.80;50.80
24744;DHT22;12844;52.110;5.548;2023-04-09T12:25:38;18.80;50.80
24744;DHT22;12844;52.110;5.548;2023-04-09T12:28:06;18.90;50.80
24744;DHT22;12844;52.110;5.548;2023-04-09T12:30:32;18.80;50.80
24744;DHT22;12844;52.110;5.548;2023-04-09T12:32:58;18.80;50.80
24744;DHT22;12844;52.110;5.548;2023-04-09T12:35:24;18.80;50.80
24744;DHT22;12844;52.110;5.548;2023-04-09T12:37:50;18.80;50.80
24744;DHT22;12844;52.110;5.548;2023-04-09T12:40:16;18.90;50.90
24744;DHT22;12844;52.110;5.548;2023-04-09T12:42:43;18.90;50.90
24744;DHT22;12844;52.110;5.548;2023-04-09T12:45:12;18.90;50.80
24744;DHT22;12844;52.110;5.548;2023-04-09T12:47:38;18.80;50.90
24744;DHT22;12844;52.110;5.548;2023-04-09T12:50:08;18.90;51.00
24744;DHT22;12844;52.110;5.548;2023-04-09T12:52:34;18.90;51.60
24744;DHT22;12844;52.110;5.548;2023-04-09T12:55:00;18.80;50.90
24744;DHT22;12844;52.110;5.548;2023-04-09T12:57:26;18.90;51.00
24744;DHT22;12844;52.110;5.548;2023-04-09T12:59:51;18.90;51.00
24744;DHT22;12844;52.110;5.548;2023-04-09T13:02:18;18.90;51.00
24744;DHT22;12844;52.110;5.548;2023-04-09T13:04:43;18.90;51.10
24744;DHT22;12844;52.110;5.548;2023-04-09T13:07:09;18.80;51.00
24744;DHT22;12844;52.110;5.548;2023-04-09T13:09:36;18.80;51.00
24744;DHT22;12844;52.110;5.548;2023-04-09T13:12:01;18.80;51.00
24744;DHT22;12844;52.110;5.548;2023-04-09T13:14:27;18.80;51.10
24744;DHT22;12844;52.110;5.548;2023-04-09T13:16:52;18.80;51.00
24744;DHT22;12844;52.110;5.548;2023-04-09T13:19:18;18.80;51.00
24744;DHT22;12844;52.110;5.548;2023-04-09T13:21:44;18.80;51.10
24744;DHT22;12844;52.110;5.548;2023-04-09T13:24:09;18.80;51.20
24744;DHT22;12844;52.110;5.548;2023-04-09T13:26:35;18.90;51.10
24744;DHT22;12844;52.110;5.548;2023-04-09T13:29:01;18.80;51.10
24744;DHT22;12844;52.110;5.548;2023-04-09T13:31:26;18.80;51.20
24744;DHT22;12844;52.110;5.548;2023-04-09T13:33:52;18.80;51.20
24744;DHT22;12844;52.110;5.548;2023-04-09T13:36:17;18.80;51.20
24744;DHT22;12844;52.110;5.548;2023-04-09T13:38:43;18.80;51.20
24744;DHT22;12844;52.110;5.548;2023-04-09T13:41:08;18.90;51.20
24744;DHT22;12844;52.110;5.548;2023-04-09T13:43:34;18.90;51.10
24744;DHT22;12844;52.110;5.548;2023-04-09T13:46:00;18.90;51.10
24744;DHT22;12844;52.110;5.548;2023-04-09T13:48:25;18.90;51.20
24744;DHT22;12844;52.110;5.548;2023-04-09T13:50:51;18.90;51.20
24744;DHT22;12844;52.110;5.548;2023-04-09T13:53:17;18.80;51.20
24744;DHT22;12844;52.110;5.548;2023-04-09T13:55:43;18.80;51.30
24744;DHT22;12844;52.110;5.548;2023-04-09T13:58:08;18.80;51.30
24744;DHT22;12844;52.110;5.548;2023-04-09T14:00:34;18.80;51.40
24744;DHT22;12844;52.110;5.548;2023-04-09T14:03:00;18.80;51.40
24744;DHT22;12844;52.110;5.548;2023-04-09T14:05:28;18.70;51.50
24744;DHT22;12844;52.110;5.548;2023-04-09T14:07:53;18.70;51.60
24744;DHT22;12844;52.110;5.548;2023-04-09T14:10:19;18.70;51.50
24744;DHT22;12844;52.110;5.548;2023-04-09T14:12:44;18.80;51.60
24744;DHT22;12844;52.110;5.548;2023-04-09T14:15:10;18.70;51.60
24744;DHT22;12844;52.110;5.548;2023-04-09T14:17:36;18.70;51.60
24744;DHT22;12844;52.110;5.548;2023-04-09T14:20:01;18.70;51.70
24744;DHT22;12844;52.110;5.548;2023-04-09T14:22:28;18.70;51.60
24744;DHT22;12844;52.110;5.548;2023-04-09T14:24:54;18.70;51.70
24744;DHT22;12844;52.110;5.548;2023-04-09T14:27:20;18.80;51.70
24744;DHT22;12844;52.110;5.548;2023-04-09T14:29:46;18.70;51.70
24744;DHT22;12844;52.110;5.548;2023-04-09T14:32:12;18.70;51.70
24744;DHT22;12844;52.110;5.548;2023-04-09T14:34:37;18.70;51.70
24744;DHT22;12844;52.110;5.548;2023-04-09T14:37:03;18.80;51.70
24744;DHT22;12844;52.110;5.548;2023-04-09T14:39:28;18.70;51.70
24744;DHT22;12844;52.110;5.548;2023-04-09T14:41:54;18.80;51.70
24744;DHT22;12844;52.110;5.548;2023-04-09T14:44:21;18.80;51.80
24744;DHT22;12844;52.110;5.548;2023-04-09T14:46:49;18.70;51.80
24744;DHT22;12844;52.110;5.548;2023-04-09T14:49:16;18.70;51.80
24744;DHT22;12844;52.110;5.548;2023-04-09T14:51:41;18.70;51.80
24744;DHT22;12844;52.110;5.548;2023-04-09T14:54:07;18.80;51.80
24744;DHT22;12844;52.110;5.548;2023-04-09T14:56:32;18.80;51.80
24744;DHT22;12844;52.110;5.548;2023-04-09T14:58:58;18.80;51.80
24744;DHT22;12844;52.110;5.548;2023-04-09T15:01:25;18.80;51.80
24744;DHT22;12844;52.110;5.548;2023-04-09T15:03:50;18.80;51.80
24744;DHT22;12844;52.110;5.548;2023-04-09T15:06:16;18.80;51.80
24744;DHT22;12844;52.110;5.548;2023-04-09T15:08:42;18.80;51.90
24744;DHT22;12844;52.110;5.548;2023-04-09T15:11:18;18.80;51.90
24744;DHT22;12844;52.110;5.548;2023-04-09T15:13:44;18.80;51.90
24744;DHT22;12844;52.110;5.548;2023-04-09T15:16:10;18.80;51.90
24744;DHT22;12844;52.110;5.548;2023-04-09T15:18:36;18.80;51.90
24744;DHT22;12844;52.110;5.548;2023-04-09T15:21:02;18.80;51.90
24744;DHT22;12844;52.110;5.548;2023-04-09T15:23:27;18.80;51.90
24744;DHT22;12844;52.110;5.548;2023-04-09T15:25:53;18.80;51.90
24744;DHT22;12844;52.110;5.548;2023-04-09T15:28:18;18.80;51.90
24744;DHT22;12844;52.110;5.548;2023-04-09T15:30:44;18.80;51.90
24744;DHT22;12844;52.110;5.548;2023-04-09T15:33:11;18.80;51.90
24744;DHT22;12844;52.110;5.548;2023-04-09T15:35:36;18.80;51.90
24744;DHT22;12844;52.110;5.548;2023-04-09T15:38:02;18.80;51.90